Time;durP1;ratioP1;P1;durP2;ratioP2;P2;SDS_P1;SDS_P2;PMS_P1;PMS_P2;Temp;Humidity;BMP_temperature;BMP_pressure;BME280_temperature;BME280_humidity;BME280_pressure;Samples;Min_cycle;Max_cycle;Signal;HPM_P1;HPM_P2
2022/10/15 00:01:18;;;;;;;6.65;3.03;;;;;;;;;;5073110;28;20256;-68
2022/10/15 00:03:44;;;;;;;7.10;3.20;;;;;;;;;;5067780;28;20413;-68
2022/10/15 00:06:12;;;;;;;5.50;2.75;;;;;;;;;;5063094;28;20053;-68
2022/10/15 00:08:39;;;;;;;5.32;2.85;;;;;;;;;;5072403;28;20046;-68
2022/10/15 00:11:10;;;;;;;6.25;2.58;;;;;;;;;;5072988;28;20044;-68
2022/10/15 00:13:36;;;;;;;7.28;2.70;;;;;;;;;;5072463;28;20086;-68
2022/10/15 00:16:03;;;;;;;4.88;2.88;;;;;;;;;;5072824;28;20070;-68
2022/10/15 00:18:29;;;;;;;5.80;2.50;;;;;;;;;;5072804;28;20054;-68
2022/10/15 00:20:56;;;;;;;7.28;2.60;;;;;;;;;;5072455;28;20053;-68
2022/10/15 00:23:22;;;;;;;6.03;2.90;;;;;;;;;;5072767;28;20052;-68
2022/10/15 00:25:48;;;;;;;7.30;2.80;;;;;;;;;;5072534;28;20071;-68
2022/10/15 00:28:15;;;;;;;4.60;2.05;;;;;;;;;;5072504;28;20049;-68
2022/10/15 00:30:41;;;;;;;8.48;2.70;;;;;;;;;;5072699;28;20102;-68
2022/10/15 00:33:08;;;;;;;5.93;2.67;;;;;;;;;;5072261;28;20047;-68
2022/10/15 00:35:34;;;;;;;6.40;2.58;;;;;;;;;;5072172;28;20117;-68
2022/10/15 00:38:00;;;;;;;7.55;2.65;;;;;;;;;;5071130;28;20411;-68
2022/10/15 00:40:27;;;;;;;6.78;2.40;;;;;;;;;;5072326;28;20058;-68
2022/10/15 00:42:53;;;;;;;7.03;2.50;;;;;;;;;;5072357;28;20060;-68
2022/10/15 00:45:19;;;;;;;6.35;3.10;;;;;;;;;;5072231;28;20049;-68
2022/10/15 00:47:47;;;;;;;8.02;3.17;;;;;;;;;;5072198;28;20040;-68
2022/10/15 00:50:13;;;;;;;;;;;;;;;;;;5072432;28;20041;-68
2022/10/15 00:52:43;;;;;;;7.30;2.88;;;;;;;;;;5071886;28;20379;-68
2022/10/15 00:55:12;;;;;;;9.75;2.85;;;;;;;;;;5072146;28;20044;-68
2022/10/15 00:57:39;;;;;;;6.85;2.85;;;;;;;;;;5071755;28;20052;-68
2022/10/15 01:00:07;;;;;;;6.82;2.97;;;;;;;;;;5071802;28;20051;-68
2022/10/15 01:02:34;;;;;;;3.60;2.15;;;;;;;;;;5071699;28;20075;-68
2022/10/15 01:05:00;;;;;;;5.35;2.83;;;;;;;;;;5071764;28;20059;-68
2022/10/15 01:07:27;;;;;;;8.82;2.72;;;;;;;;;;5071670;28;20059;-68
2022/10/15 01:09:53;;;;;;;6.90;2.47;;;;;;;;;;5071876;28;20411;-68
2022/10/15 01:12:40;;;;;;;5.38;2.40;;;;;;;;;;5071727;28;20480;-68
2022/10/15 01:15:06;;;;;;;5.17;2.50;;;;;;;;;;5071496;28;20506;-68
2022/10/15 01:17:39;;;;;;;5.35;2.40;;;;;;;;;;5071665;28;20044;-68
2022/10/15 01:20:08;;;;;;;6.85;2.80;;;;;;;;;;5071644;28;20496;-68
2022/10/15 01:22:34;;;;;;;6.68;3.10;;;;;;;;;;5071614;28;20056;-68
2022/10/15 01:25:01;;;;;;;6.82;2.40;;;;;;;;;;5071498;28;20045;-68
2022/10/15 01:27:30;;;;;;;5.07;2.42;;;;;;;;;;5071489;28;20052;-68
2022/10/15 01:30:06;;;;;;;8.30;3.00;;;;;;;;;;5071547;28;20045;-68
2022/10/15 01:32:37;;;;;;;7.32;2.97;;;;;;;;;;5064575;28;20044;-68
2022/10/15 01:35:09;;;;;;;7.55;3.00;;;;;;;;;;5071121;28;20062;-68
2022/10/15 01:37:36;;;;;;;4.43;2.72;;;;;;;;;;5071770;28;20403;-68
2022/10/15 01:40:02;;;;;;;5.47;3.30;;;;;;;;;;5071432;28;20051;-68
2022/10/15 01:42:35;;;;;;;9.38;3.35;;;;;;;;;;5071448;28;20044;-68
2022/10/15 01:45:06;;;;;;;8.02;3.38;;;;;;;;;;5071923;28;20049;-68
2022/10/15 01:47:32;;;;;;;9.73;3.58;;;;;;;;;;5071326;28;20045;-68
2022/10/15 01:50:00;;;;;;;5.70;2.95;;;;;;;;;;5071564;28;20251;-68
2022/10/15 01:52:28;;;;;;;5.93;3.50;;;;;;;;;;5071436;28;20058;-68
2022/10/15 01:54:56;;;;;;;9.43;3.60;;;;;;;;;;5071328;28;20053;-68
2022/10/15 01:57:24;;;;;;;7.53;3.40;;;;;;;;;;5071556;28;20048;-68
2022/10/15 01:59:53;;;;;;;6.13;3.55;;;;;;;;;;5071234;28;20384;-68
2022/10/15 02:02:19;;;;;;;7.63;3.53;;;;;;;;;;5071202;28;20048;-68
2022/10/15 02:04:46;;;;;;;10.90;4.00;;;;;;;;;;5071336;28;20110;-68
2022/10/15 02:07:12;;;;;;;7.10;3.60;;;;;;;;;;5070947;28;20044;-68
2022/10/15 02:09:48;;;;;;;7.93;3.10;;;;;;;;;;5071786;28;20052;-68
2022/10/15 02:12:33;;;;;;;7.07;3.30;;;;;;;;;;5075188;28;20036;-68
2022/10/15 02:15:23;;;;;;;6.78;3.30;;;;;;;;;;5075047;28;20119;-68
2022/10/15 02:18:08;;;;;;;5.93;3.03;;;;;;;;;;5055552;28;20053;-68
2022/10/15 02:20:54;;;;;;;6.13;3.15;;;;;;;;;;5074973;28;20054;-68
2022/10/15 02:23:24;;;;;;;7.50;3.33;;;;;;;;;;5075092;28;20060;-68
2022/10/15 02:25:52;;;;;;;8.07;2.92;;;;;;;;;;5074579;28;20492;-68
2022/10/15 02:28:18;;;;;;;;;;;;;;;;;;5075025;28;20055;-68
2022/10/15 02:30:46;;;;;;;6.47;3.65;;;;;;;;;;5074877;28;19928;-68
2022/10/15 02:33:14;;;;;;;9.57;3.33;;;;;;;;;;5074958;28;20051;-68
2022/10/15 02:35:40;;;;;;;;;;;;;;;;;;5074837;28;20052;-68
2022/10/15 02:38:08;;;;;;;4.95;3.17;;;;;;;;;;5075079;28;19924;-68
2022/10/15 02:40:35;;;;;;;10.43;3.63;;;;;;;;;;5074563;28;20056;-68
2022/10/15 02:43:07;;;;;;;6.45;2.85;;;;;;;;;;5074603;28;20051;-68
2022/10/15 02:45:33;;;;;;;6.75;3.53;;;;;;;;;;5074418;28;20045;-68
2022/10/15 02:48:00;;;;;;;7.38;3.38;;;;;;;;;;5074321;28;20048;-68
2022/10/15 02:50:26;;;;;;;6.03;3.30;;;;;;;;;;5074266;28;20480;-68
2022/10/15 02:52:53;;;;;;;11.13;3.60;;;;;;;;;;5074171;28;20049;-68
2022/10/15 02:55:19;;;;;;;6.18;3.15;;;;;;;;;;5074393;28;20078;-68
2022/10/15 02:57:45;;;;;;;6.10;3.42;;;;;;;;;;5074428;28;20052;-68
2022/10/15 03:00:12;;;;;;;7.30;3.10;;;;;;;;;;5074363;28;20047;-68
2022/10/15 03:02:38;;;;;;;5.03;3.45;;;;;;;;;;5074005;28;20408;-68
2022/10/15 03:05:05;;;;;;;6.60;3.95;;;;;;;;;;5074271;28;20076;-68
2022/10/15 03:07:31;;;;;;;4.90;3.28;;;;;;;;;;5074207;28;20055;-68
2022/10/15 03:09:58;;;;;;;5.22;3.05;;;;;;;;;;5073897;28;20049;-68
2022/10/15 03:12:24;;;;;;;4.30;2.97;;;;;;;;;;5072928;28;20127;-68
2022/10/15 03:14:51;;;;;;;7.63;3.58;;;;;;;;;;5073843;28;20048;-68
2022/10/15 03:17:17;;;;;;;8.63;3.22;;;;;;;;;;5073759;28;20495;-68
2022/10/15 03:19:44;;;;;;;9.00;4.15;;;;;;;;;;5073828;28;20404;-68
2022/10/15 03:22:10;;;;;;;6.53;3.75;;;;;;;;;;5073517;28;20044;-68
2022/10/15 03:24:36;;;;;;;7.28;3.75;;;;;;;;;;5073947;28;20045;-68
2022/10/15 03:27:03;;;;;;;10.18;4.18;;;;;;;;;;5074836;28;20481;-68
2022/10/15 03:29:29;;;;;;;9.05;4.38;;;;;;;;;;5073691;28;20206;-68
2022/10/15 03:31:55;;;;;;;6.95;4.43;;;;;;;;;;5073564;28;20058;-68
2022/10/15 03:34:22;;;;;;;6.65;4.20;;;;;;;;;;5073485;28;20055;-68
2022/10/15 03:36:48;;;;;;;8.10;4.03;;;;;;;;;;5073398;28;20041;-68
2022/10/15 03:39:15;;;;;;;10.82;4.20;;;;;;;;;;5073634;28;20045;-68
2022/10/15 03:41:41;;;;;;;6.05;4.45;;;;;;;;;;5073680;28;20045;-68
2022/10/15 03:44:12;;;;;;;8.85;4.70;;;;;;;;;;5073620;28;20056;-68
2022/10/15 03:46:38;;;;;;;10.38;4.82;;;;;;;;;;5073389;28;20045;-69
2022/10/15 03:49:05;;;;;;;6.70;4.10;;;;;;;;;;5073230;28;20048;-68
2022/10/15 03:51:31;;;;;;;6.72;3.88;;;;;;;;;;5073346;28;20044;-68
2022/10/15 03:53:57;;;;;;;4.40;2.70;;;;;;;;;;5073438;28;20049;-67
2022/10/15 03:56:24;;;;;;;2.22;1.90;;;;;;;;;;5073173;28;20052;-67
2022/10/15 03:58:50;;;;;;;2.38;2.15;;;;;;;;;;5073141;28;20059;-67
2022/10/15 04:01:18;;;;;;;3.00;1.88;;;;;;;;;;5072836;28;20130;-67
2022/10/15 04:03:45;;;;;;;3.83;2.13;;;;;;;;;;5073218;28;20087;-67
2022/10/15 04:06:11;;;;;;;4.18;2.20;;;;;;;;;;5072823;28;20415;-66
2022/10/15 04:08:38;;;;;;;3.05;2.08;;;;;;;;;;5045002;28;20040;-67
2022/10/15 04:11:04;;;;;;;3.28;2.45;;;;;;;;;;5073036;28;20114;-67
2022/10/15 04:13:30;;;;;;;6.00;2.90;;;;;;;;;;5072763;28;20048;-67
2022/10/15 04:15:57;;;;;;;5.07;3.10;;;;;;;;;;5072773;28;20070;-67
2022/10/15 04:18:23;;;;;;;4.97;3.17;;;;;;;;;;5072506;28;20044;-67
2022/10/15 04:20:49;;;;;;;5.63;3.33;;;;;;;;;;5072880;28;20052;-67
2022/10/15 04:23:16;;;;;;;3.65;2.90;;;;;;;;;;5072749;28;20053;-67
2022/10/15 04:25:44;;;;;;;4.82;2.97;;;;;;;;;;5072430;28;20587;-67
2022/10/15 04:28:11;;;;;;;4.70;2.70;;;;;;;;;;5072324;28;20052;-67
2022/10/15 04:30:37;;;;;;;7.35;2.95;;;;;;;;;;5072307;28;20473;-67
2022/10/15 04:33:03;;;;;;;3.53;2.28;;;;;;;;;;5071971;28;20381;-67
2022/10/15 04:35:30;;;;;;;2.83;1.83;;;;;;;;;;5072373;28;20055;-67
2022/10/15 04:37:58;;;;;;;4.33;2.50;;;;;;;;;;5072222;28;20056;-67
2022/10/15 04:40:24;;;;;;;2.42;2.20;;;;;;;;;;5071059;28;20289;-68
2022/10/15 04:42:51;;;;;;;5.55;2.53;;;;;;;;;;5072152;28;20055;-67
2022/10/15 04:45:17;;;;;;;2.70;1.80;;;;;;;;;;5072144;28;20063;-67
2022/10/15 04:47:44;;;;;;;4.10;2.42;;;;;;;;;;5071941;28;20062;-68
2022/10/15 04:50:10;;;;;;;3.10;1.88;;;;;;;;;;5072260;28;20052;-67
2022/10/15 04:52:37;;;;;;;3.95;2.22;;;;;;;;;;5071808;28;20514;-68
2022/10/15 04:55:03;;;;;;;3.67;1.98;;;;;;;;;;5071937;28;20055;-68
2022/10/15 04:57:30;;;;;;;2.58;1.90;;;;;;;;;;5071944;28;20505;-68
2022/10/15 04:59:56;;;;;;;4.50;1.90;;;;;;;;;;5071796;28;20403;-67
2022/10/15 05:02:23;;;;;;;2.50;1.98;;;;;;;;;;5071761;28;20507;-68
2022/10/15 05:04:50;;;;;;;4.20;1.90;;;;;;;;;;5072183;28;20060;-68
2022/10/15 05:07:16;;;;;;;3.83;2.05;;;;;;;;;;5071803;28;20044;-68
2022/10/15 05:09:42;;;;;;;3.00;1.60;;;;;;;;;;5071875;28;20045;-68
2022/10/15 05:12:11;;;;;;;2.08;1.13;;;;;;;;;;5072058;28;20182;-68
2022/10/15 05:14:38;;;;;;;1.20;1.10;;;;;;;;;;5071677;28;20050;-68
2022/10/15 05:17:04;;;;;;;1.67;0.70;;;;;;;;;;5071855;28;20043;-68
2022/10/15 05:19:30;;;;;;;1.80;1.00;;;;;;;;;;5071725;28;20060;-68
2022/10/15 05:21:57;;;;;;;1.67;1.20;;;;;;;;;;5071715;28;20077;-68
2022/10/15 05:24:23;;;;;;;2.67;1.00;;;;;;;;;;5071896;28;20059;-68
2022/10/15 05:26:49;;;;;;;2.65;0.90;;;;;;;;;;5071470;28;20056;-68
2022/10/15 05:29:16;;;;;;;0.98;0.98;;;;;;;;;;5071516;28;20049;-68
2022/10/15 05:31:42;;;;;;;2.10;1.00;;;;;;;;;;5071852;28;20406;-68
2022/10/15 05:34:08;;;;;;;1.23;0.85;;;;;;;;;;5071803;28;20041;-68
2022/10/15 05:36:35;;;;;;;1.15;1.10;;;;;;;;;;5070034;28;20503;-68
2022/10/15 05:39:03;;;;;;;2.05;0.93;;;;;;;;;;5071526;28;20044;-68
2022/10/15 05:41:29;;;;;;;2.20;0.73;;;;;;;;;;5071565;28;20597;-68
2022/10/15 05:43:57;;;;;;;1.10;0.80;;;;;;;;;;5071390;28;20567;-68
2022/10/15 05:46:24;;;;;;;0.95;0.90;;;;;;;;;;5075115;28;20041;-68
2022/10/15 05:48:51;;;;;;;1.73;0.80;;;;;;;;;;5075839;28;20079;-68
2022/10/15 05:51:17;;;;;;;1.67;0.90;;;;;;;;;;5075600;28;20036;-68
2022/10/15 05:53:45;;;;;;;1.27;0.80;;;;;;;;;;5075545;28;20044;-68
2022/10/15 05:56:14;;;;;;;1.83;1.05;;;;;;;;;;5075677;28;20040;-68
2022/10/15 05:58:41;;;;;;;3.60;1.20;;;;;;;;;;5075313;28;20514;-68
2022/10/15 06:01:09;;;;;;;1.70;1.33;;;;;;;;;;5075354;28;20442;-68
2022/10/15 06:03:36;;;;;;;3.03;1.15;;;;;;;;;;5075437;28;20045;-68
2022/10/15 06:06:02;;;;;;;2.05;1.30;;;;;;;;;;5075276;28;20079;-68
2022/10/15 06:08:29;;;;;;;2.28;1.50;;;;;;;;;;5075105;28;20074;-68
2022/10/15 06:11:01;;;;;;;4.38;1.63;;;;;;;;;;5075074;28;20419;-68
2022/10/15 06:13:33;;;;;;;3.22;2.00;;;;;;;;;;5074119;28;20068;-68
2022/10/15 06:16:02;;;;;;;1.85;1.75;;;;;;;;;;5075294;28;20128;-68
2022/10/15 06:18:28;;;;;;;2.78;1.73;;;;;;;;;;5074893;28;20051;-68
2022/10/15 06:20:54;;;;;;;2.20;1.52;;;;;;;;;;5074972;28;20056;-68
2022/10/15 06:23:23;;;;;;;2.58;2.08;;;;;;;;;;5074693;28;20068;-68
2022/10/15 06:25:49;;;;;;;2.78;2.50;;;;;;;;;;5074713;28;20659;-68
2022/10/15 06:28:16;;;;;;;2.55;2.35;;;;;;;;;;5074689;28;20055;-68
2022/10/15 06:30:43;;;;;;;3.42;2.67;;;;;;;;;;5073364;28;20127;-68
2022/10/15 06:33:09;;;;;;;3.97;2.85;;;;;;;;;;5074927;28;20044;-68
2022/10/15 06:35:36;;;;;;;4.25;2.50;;;;;;;;;;5074406;28;20056;-68
2022/10/15 06:38:03;;;;;;;2.70;2.50;;;;;;;;;;5074768;28;20052;-68
2022/10/15 06:40:30;;;;;;;4.38;2.35;;;;;;;;;;5074247;28;20496;-70
2022/10/15 06:43:03;;;;;;;3.85;2.15;;;;;;;;;;5074368;28;20050;-69
2022/10/15 06:45:30;;;;;;;4.10;2.53;;;;;;;;;;5067188;28;20511;-68
2022/10/15 06:47:56;;;;;;;4.95;2.55;;;;;;;;;;5067102;28;20488;-68
2022/10/15 06:50:22;;;;;;;5.18;2.20;;;;;;;;;;5070239;28;20056;-69
2022/10/15 06:52:49;;;;;;;4.30;2.20;;;;;;;;;;5070611;28;20420;-68
2022/10/15 06:55:15;;;;;;;3.45;2.08;;;;;;;;;;5073592;28;20098;-69
2022/10/15 06:57:42;;;;;;;4.65;2.33;;;;;;;;;;5073353;28;20496;-69
2022/10/15 07:00:08;;;;;;;2.45;1.30;;;;;;;;;;5053028;28;20056;-68
2022/10/15 07:02:35;;;;;;;1.85;1.30;;;;;;;;;;5053482;28;20048;-68
2022/10/15 07:05:01;;;;;;;3.47;1.00;;;;;;;;;;5053084;28;20510;-68
2022/10/15 07:07:28;;;;;;;3.42;1.00;;;;;;;;;;5053349;28;20423;-68
2022/10/15 07:09:54;;;;;;;1.80;0.70;;;;;;;;;;5053304;28;20045;-68
2022/10/15 07:12:21;;;;;;;2.05;0.60;;;;;;;;;;5053425;28;20041;-68
2022/10/15 07:14:48;;;;;;;3.08;0.98;;;;;;;;;;5053224;28;20102;-68
2022/10/15 07:17:15;;;;;;;2.35;0.80;;;;;;;;;;5053734;28;20056;-68
2022/10/15 07:19:42;;;;;;;2.83;0.55;;;;;;;;;;5053369;28;20051;-68
2022/10/15 07:22:09;;;;;;;2.47;0.77;;;;;;;;;;5052566;28;20045;-68
2022/10/15 07:24:35;;;;;;;1.23;0.40;;;;;;;;;;5053013;28;20049;-68
2022/10/15 07:27:02;;;;;;;1.83;0.40;;;;;;;;;;5054959;28;20049;-67
2022/10/15 07:29:42;;;;;;;0.80;0.30;;;;;;;;;;5052812;28;20091;-68
2022/10/15 07:32:08;;;;;;;2.42;0.40;;;;;;;;;;5052808;28;20044;-69
2022/10/15 07:34:34;;;;;;;0.90;0.28;;;;;;;;;;5052603;28;20044;-69
2022/10/15 07:37:01;;;;;;;2.47;0.40;;;;;;;;;;5052695;28;20060;-68
2022/10/15 07:39:27;;;;;;;1.33;0.32;;;;;;;;;;5053511;28;20155;-68
2022/10/15 07:41:54;;;;;;;1.92;0.52;;;;;;;;;;5047971;28;20056;-68
2022/10/15 07:44:20;;;;;;;2.05;0.60;;;;;;;;;;5052716;28;20048;-68
2022/10/15 07:46:47;;;;;;;2.10;0.40;;;;;;;;;;5051963;28;20059;-68
2022/10/15 07:49:15;;;;;;;2.08;0.30;;;;;;;;;;5052836;28;20052;-67
2022/10/15 07:51:41;;;;;;;1.67;0.20;;;;;;;;;;5052437;28;20047;-67
2022/10/15 07:54:08;;;;;;;3.25;0.50;;;;;;;;;;5048193;28;20053;-68
2022/10/15 07:56:34;;;;;;;1.52;0.17;;;;;;;;;;5059782;28;20495;-67
2022/10/15 07:59:00;;;;;;;2.92;0.40;;;;;;;;;;5072814;28;20078;-68
2022/10/15 08:01:27;;;;;;;2.20;0.28;;;;;;;;;;5065303;28;20044;-67
2022/10/15 08:03:53;;;;;;;2.78;0.38;;;;;;;;;;5072654;28;20484;-66
2022/10/15 08:06:19;;;;;;;1.75;0.40;;;;;;;;;;5071476;28;20404;-66
2022/10/15 08:08:46;;;;;;;2.88;0.40;;;;;;;;;;5070653;28;20048;-66
2022/10/15 08:11:14;;;;;;;1.80;0.30;;;;;;;;;;5072850;28;20105;-66
2022/10/15 08:13:41;;;;;;;1.65;0.35;;;;;;;;;;5072813;28;20051;-66
2022/10/15 08:16:08;;;;;;;1.88;0.60;;;;;;;;;;5072723;28;20093;-67
2022/10/15 08:18:35;;;;;;;3.60;0.60;;;;;;;;;;5072351;28;20495;-67
2022/10/15 08:21:01;;;;;;;3.05;0.60;;;;;;;;;;5057662;28;20049;-66
2022/10/15 08:23:28;;;;;;;1.77;0.50;;;;;;;;;;5052242;28;20049;-65
2022/10/15 08:25:56;;;;;;;1.52;0.47;;;;;;;;;;5058715;28;20045;-66
2022/10/15 08:28:22;;;;;;;2.58;0.50;;;;;;;;;;5051685;28;20404;-66
2022/10/15 08:30:49;;;;;;;2.42;0.80;;;;;;;;;;5051247;28;20111;-66
2022/10/15 08:33:15;;;;;;;3.13;0.75;;;;;;;;;;5051760;28;20053;-66
2022/10/15 08:35:42;;;;;;;1.48;0.50;;;;;;;;;;5051732;28;20053;-67
2022/10/15 08:38:11;;;;;;;2.70;0.50;;;;;;;;;;5062667;28;20155;-67
2022/10/15 08:40:47;;;;;;;3.00;0.50;;;;;;;;;;5068533;28;20507;-66
2022/10/15 08:43:23;;;;;;;2.15;0.30;;;;;;;;;;5072084;28;20075;-66
2022/10/15 08:45:51;;;;;;;3.38;0.57;;;;;;;;;;5061776;28;20048;-66
2022/10/15 08:48:21;;;;;;;1.45;0.73;;;;;;;;;;5072167;28;20049;-66
2022/10/15 08:50:52;;;;;;;3.25;0.40;;;;;;;;;;5071881;28;20095;-66
2022/10/15 08:53:20;;;;;;;1.27;0.65;;;;;;;;;;5067175;28;20094;-66
2022/10/15 08:55:50;;;;;;;2.03;0.35;;;;;;;;;;5050731;28;20051;-66
2022/10/15 08:58:24;;;;;;;4.32;0.60;;;;;;;;;;5051101;28;20147;-67
2022/10/15 09:01:00;;;;;;;2.13;0.60;;;;;;;;;;5057040;28;20518;-67
2022/10/15 09:03:39;;;;;;;3.47;0.63;;;;;;;;;;5071608;28;20062;-68
2022/10/15 09:06:05;;;;;;;1.27;0.45;;;;;;;;;;5071280;28;20555;-67
2022/10/15 09:08:44;;;;;;;2.08;0.30;;;;;;;;;;5071348;28;20060;-67
2022/10/15 09:11:19;;;;;;;4.22;0.77;;;;;;;;;;5058872;28;20041;-67
2022/10/15 09:13:47;;;;;;;3.35;0.98;;;;;;;;;;5051072;28;20411;-68
2022/10/15 09:16:13;;;;;;;;;;;;;;;;;;5051237;28;20040;-68
2022/10/15 09:18:42;;;;;;;1.50;0.38;;;;;;;;;;5050805;28;20398;-68
2022/10/15 09:21:10;;;;;;;3.13;0.50;;;;;;;;;;5061450;28;20044;-68
2022/10/15 09:23:36;;;;;;;1.60;0.50;;;;;;;;;;5050649;28;20507;-68
2022/10/15 09:26:09;;;;;;;2.90;0.63;;;;;;;;;;5050292;28;20055;-68
2022/10/15 09:28:42;;;;;;;1.75;0.65;;;;;;;;;;5056499;28;20453;-67
2022/10/15 09:31:10;;;;;;;4.22;0.63;;;;;;;;;;5071049;28;20044;-67
2022/10/15 09:33:37;;;;;;;3.28;0.88;;;;;;;;;;5061621;28;20047;-69
2022/10/15 09:36:22;;;;;;;0.77;0.30;;;;;;;;;;5065959;28;20059;-69
2022/10/15 09:38:55;;;;;;;2.45;0.40;;;;;;;;;;5056659;28;20055;-67
2022/10/15 09:41:39;;;;;;;1.70;0.40;;;;;;;;;;5060294;28;20416;-67
2022/10/15 09:44:11;;;;;;;1.70;0.30;;;;;;;;;;5043899;28;20060;-68
2022/10/15 09:46:44;;;;;;;1.35;0.30;;;;;;;;;;5044734;28;20197;-67
2022/10/15 09:49:17;;;;;;;2.40;0.30;;;;;;;;;;5041668;28;20057;-67
2022/10/15 09:51:47;;;;;;;1.38;0.40;;;;;;;;;;5070443;28;20048;-68
2022/10/15 09:54:19;;;;;;;2.28;0.50;;;;;;;;;;5070047;28;20045;-67
2022/10/15 09:56:48;;;;;;;1.90;0.40;;;;;;;;;;5062107;28;20058;-67
2022/10/15 09:59:18;;;;;;;2.03;0.50;;;;;;;;;;5051184;28;20049;-67
2022/10/15 10:01:57;;;;;;;3.85;0.80;;;;;;;;;;5050311;28;20127;-67
2022/10/15 10:04:25;;;;;;;3.10;0.70;;;;;;;;;;5050842;28;20053;-68
2022/10/15 10:07:02;;;;;;;3.95;0.60;;;;;;;;;;5050894;28;20053;-68
2022/10/15 10:09:31;;;;;;;2.63;0.75;;;;;;;;;;5050477;28;20045;-74
2022/10/15 10:12:02;;;;;;;3.63;0.60;;;;;;;;;;5049255;28;20060;-77
2022/10/15 10:14:44;;;;;;;3.97;0.60;;;;;;;;;;5050885;28;20041;-80
2022/10/15 10:17:20;;;;;;;3.72;0.65;;;;;;;;;;5047915;28;20133;-79
2022/10/15 10:20:02;;;;;;;5.22;0.75;;;;;;;;;;5050831;28;20053;-76
2022/10/15 10:22:28;;;;;;;4.35;1.80;;;;;;;;;;5050505;28;20560;-77
2022/10/15 10:24:54;;;;;;;3.30;1.00;;;;;;;;;;5050814;28;20049;-76
2022/10/15 10:27:21;;;;;;;3.80;0.93;;;;;;;;;;5050331;28;20053;-75
2022/10/15 10:29:53;;;;;;;4.13;0.70;;;;;;;;;;5050372;28;20313;-77
2022/10/15 10:32:22;;;;;;;4.05;0.80;;;;;;;;;;5053767;28;20041;-76
2022/10/15 10:34:48;;;;;;;4.50;1.25;;;;;;;;;;5054065;28;20085;-76
2022/10/15 10:37:18;;;;;;;3.28;0.80;;;;;;;;;;5052260;28;20281;-77
2022/10/15 10:39:50;;;;;;;4.78;0.80;;;;;;;;;;5053927;28;20057;-74
2022/10/15 10:42:23;;;;;;;5.20;0.90;;;;;;;;;;5054251;28;20060;-78
2022/10/15 10:44:51;;;;;;;4.47;0.77;;;;;;;;;;5052704;28;20518;-76
2022/10/15 10:47:22;;;;;;;3.55;0.82;;;;;;;;;;5053993;28;20099;-75
2022/10/15 10:49:53;;;;;;;4.80;1.10;;;;;;;;;;5052680;28;20049;-75
2022/10/15 10:52:25;;;;;;;2.63;0.57;;;;;;;;;;5053637;28;20048;-76
2022/10/15 10:55:12;;;;;;;4.55;0.90;;;;;;;;;;5051611;28;20552;-73
2022/10/15 10:57:43;;;;;;;4.53;1.00;;;;;;;;;;5045576;28;20043;-74
2022/10/15 11:00:16;;;;;;;3.58;1.10;;;;;;;;;;5072874;28;20408;-73
2022/10/15 11:02:43;;;;;;;4.30;1.00;;;;;;;;;;5059459;28;20064;-73
2022/10/15 11:05:10;;;;;;;5.07;1.10;;;;;;;;;;5067344;28;20155;-76
2022/10/15 11:07:48;;;;;;;6.30;0.90;;;;;;;;;;5054113;28;20044;-72
2022/10/15 11:10:27;;;;;;;3.72;0.80;;;;;;;;;;5068482;28;20447;-73
2022/10/15 11:13:02;;;;;;;4.45;1.02;;;;;;;;;;5072844;28;20056;-71
2022/10/15 11:15:35;;;;;;;2.67;0.80;;;;;;;;;;5074065;28;20048;-71
2022/10/15 11:18:20;;;;;;;4.03;1.10;;;;;;;;;;5073863;28;20063;-71
2022/10/15 11:21:05;;;;;;;4.68;0.95;;;;;;;;;;5073651;28;20049;-71
2022/10/15 11:23:51;;;;;;;4.43;1.10;;;;;;;;;;5073732;28;20488;-71
2022/10/15 11:26:30;;;;;;;4.47;1.20;;;;;;;;;;5073659;28;20052;-71
2022/10/15 11:29:18;;;;;;;2.88;0.88;;;;;;;;;;5073845;28;20151;-65
2022/10/15 11:31:45;;;;;;;3.13;0.80;;;;;;;;;;5073837;28;20041;-66
2022/10/15 11:34:54;;;;;;;4.65;1.15;;;;;;;;;;5073796;28;20094;-66
2022/10/15 11:37:33;;;;;;;5.50;1.15;;;;;;;;;;5071474;28;20044;-66
2022/10/15 11:39:59;;;;;;;4.28;1.00;;;;;;;;;;5073549;28;20086;-66
2022/10/15 11:42:44;;;;;;;5.03;1.10;;;;;;;;;;5073689;28;20068;-67
2022/10/15 11:45:19;;;;;;;6.38;1.25;;;;;;;;;;5073716;28;20052;-66
2022/10/15 11:48:08;;;;;;;4.35;1.17;;;;;;;;;;5073310;28;20072;-66
2022/10/15 11:50:34;;;;;;;3.58;0.45;;;;;;;;;;5073027;28;20060;-68
2022/10/15 11:53:19;;;;;;;4.95;0.80;;;;;;;;;;5073230;28;20037;-68
2022/10/15 11:55:52;;;;;;;2.72;0.55;;;;;;;;;;5073064;28;20523;-68
2022/10/15 11:58:29;;;;;;;2.85;0.75;;;;;;;;;;5073067;28;20046;-68
2022/10/15 12:00:59;;;;;;;3.45;0.50;;;;;;;;;;5073158;28;20045;-68
2022/10/15 12:03:26;;;;;;;3.92;0.82;;;;;;;;;;5072779;28;20049;-68
2022/10/15 12:06:02;;;;;;;4.15;0.77;;;;;;;;;;5073118;28;20395;-68
2022/10/15 12:08:33;;;;;;;4.90;1.00;;;;;;;;;;5072814;28;20052;-68
2022/10/15 12:11:09;;;;;;;5.47;1.40;;;;;;;;;;5072895;28;20048;-68
2022/10/15 12:13:41;;;;;;;4.50;1.05;;;;;;;;;;5072675;28;20044;-68
2022/10/15 12:16:13;;;;;;;4.70;0.80;;;;;;;;;;5073042;28;20044;-68
2022/10/15 12:18:59;;;;;;;4.80;1.23;;;;;;;;;;5072834;28;20036;-67
2022/10/15 12:21:35;;;;;;;3.10;1.25;;;;;;;;;;5072444;28;20048;-68
2022/10/15 12:24:02;;;;;;;2.60;0.73;;;;;;;;;;5072817;28;20054;-67
2022/10/15 12:26:31;;;;;;;4.88;1.10;;;;;;;;;;5072669;28;20052;-67
2022/10/15 12:28:59;;;;;;;5.70;1.02;;;;;;;;;;5072579;28;20419;-67
2022/10/15 12:31:43;;;;;;;2.78;0.82;;;;;;;;;;5072534;28;20048;-66
2022/10/15 12:34:23;;;;;;;3.30;0.88;;;;;;;;;;5072948;28;20044;-66
2022/10/15 12:36:58;;;;;;;5.97;1.40;;;;;;;;;;5072120;28;20381;-66
2022/10/15 12:39:24;;;;;;;8.95;1.65;;;;;;;;;;5072279;28;20040;-67
2022/10/15 12:42:20;;;;;;;5.05;0.95;;;;;;;;;;5071325;28;20114;-66
2022/10/15 12:44:47;;;;;;;5.97;1.05;;;;;;;;;;5072281;28;20052;-66
2022/10/15 12:47:13;;;;;;;4.15;1.02;;;;;;;;;;5059946;28;20052;-66
2022/10/15 12:49:40;;;;;;;5.05;0.90;;;;;;;;;;5060713;28;20041;-66
2022/10/15 12:52:33;;;;;;;8.50;1.70;;;;;;;;;;5071305;28;20044;-66
2022/10/15 12:55:18;;;;;;;7.18;1.63;;;;;;;;;;5054848;28;20300;-67
2022/10/15 12:57:44;;;;;;;6.05;1.23;;;;;;;;;;5056194;28;20056;-67
2022/10/15 13:00:23;;;;;;;5.07;1.30;;;;;;;;;;5051624;28;20218;-68
2022/10/15 13:02:50;;;;;;;7.15;1.77;;;;;;;;;;5051317;28;20049;-66
2022/10/15 13:05:24;;;;;;;5.07;1.38;;;;;;;;;;5048532;28;20059;-67
2022/10/15 13:07:51;;;;;;;4.78;1.10;;;;;;;;;;5062040;28;20048;-66
2022/10/15 13:10:20;;;;;;;5.05;1.40;;;;;;;;;;5050656;28;20067;-66
2022/10/15 13:12:54;;;;;;;4.75;1.15;;;;;;;;;;5051288;28;20506;-66
2022/10/15 13:15:22;;;;;;;5.00;1.35;;;;;;;;;;5051368;28;20045;-66
2022/10/15 13:17:48;;;;;;;4.68;1.50;;;;;;;;;;5051315;28;20053;-66
2022/10/15 13:20:26;;;;;;;5.68;1.08;;;;;;;;;;5051435;28;20049;-66
2022/10/15 13:23:05;;;;;;;6.05;1.38;;;;;;;;;;5051565;28;20385;-66
2022/10/15 13:25:44;;;;;;;7.78;1.90;;;;;;;;;;5060255;28;20048;-66
2022/10/15 13:28:30;;;;;;;5.57;1.58;;;;;;;;;;5071883;28;20047;-64
2022/10/15 13:30:57;;;;;;;3.95;1.42;;;;;;;;;;5071840;28;20071;-65
2022/10/15 13:33:23;;;;;;;;;;;;;;;;;;5072078;28;20056;-64
2022/10/15 13:35:50;;;;;;;9.35;1.70;;;;;;;;;;5065449;28;20284;-64
2022/10/15 13:38:20;;;;;;;5.40;1.80;;;;;;;;;;5063106;28;20045;-64
2022/10/15 13:40:48;;;;;;;8.05;1.60;;;;;;;;;;5065204;28;20044;-63
2022/10/15 13:43:16;;;;;;;7.70;1.50;;;;;;;;;;5070106;28;20499;-66
2022/10/15 13:45:49;;;;;;;3.95;1.38;;;;;;;;;;5055399;28;20052;-66
2022/10/15 13:48:19;;;;;;;8.52;2.00;;;;;;;;;;5057523;28;20048;-66
2022/10/15 13:50:46;;;;;;;4.20;1.48;;;;;;;;;;5071578;28;20048;-66
2022/10/15 13:53:15;;;;;;;5.03;1.33;;;;;;;;;;5071413;28;20040;-65
2022/10/15 13:55:45;;;;;;;5.60;1.33;;;;;;;;;;5071344;28;20404;-66
2022/10/15 13:58:20;;;;;;;6.28;1.05;;;;;;;;;;5070332;28;20044;-66
2022/10/15 14:00:56;;;;;;;6.13;1.38;;;;;;;;;;5071556;28;20049;-65
2022/10/15 14:03:24;;;;;;;6.30;1.08;;;;;;;;;;5071272;28;20056;-65
2022/10/15 14:05:51;;;;;;;5.10;1.40;;;;;;;;;;5060865;28;20056;-66
2022/10/15 14:08:24;;;;;;;5.63;1.80;;;;;;;;;;5054776;28;20052;-66
2022/10/15 14:10:51;;;;;;;5.43;1.58;;;;;;;;;;5058510;28;20409;-65
2022/10/15 14:13:18;;;;;;;8.07;1.77;;;;;;;;;;5068592;28;20476;-66
2022/10/15 14:15:44;;;;;;;5.47;1.80;;;;;;;;;;5075319;28;20051;-66
2022/10/15 14:18:12;;;;;;;7.68;1.65;;;;;;;;;;5075056;28;20055;-66
2022/10/15 14:20:42;;;;;;;6.43;1.45;;;;;;;;;;5067461;28;20049;-66
2022/10/15 14:23:34;;;;;;;6.32;1.70;;;;;;;;;;5069098;28;20079;-66
2022/10/15 14:26:01;;;;;;;4.82;1.42;;;;;;;;;;5051937;28;20053;-66
2022/10/15 14:28:29;;;;;;;9.45;1.70;;;;;;;;;;5074031;28;20052;-66
2022/10/15 14:30:56;;;;;;;6.20;1.42;;;;;;;;;;5074961;28;20060;-66
2022/10/15 14:33:32;;;;;;;6.20;1.50;;;;;;;;;;5074716;28;20064;-67
2022/10/15 14:36:12;;;;;;;6.32;1.75;;;;;;;;;;5074613;28;20044;-66
2022/10/15 14:38:40;;;;;;;4.82;1.77;;;;;;;;;;5073269;28;20064;-66
2022/10/15 14:41:21;;;;;;;8.70;1.92;;;;;;;;;;5074472;28;20055;-68
2022/10/15 14:44:07;;;;;;;10.32;1.77;;;;;;;;;;5074792;28;20053;-66
2022/10/15 14:46:38;;;;;;;5.78;1.98;;;;;;;;;;5074617;28;20044;-66
2022/10/15 14:49:15;;;;;;;6.30;1.65;;;;;;;;;;5074448;28;20492;-66
2022/10/15 14:51:41;;;;;;;6.18;1.90;;;;;;;;;;5074339;28;20487;-66
2022/10/15 14:54:19;;;;;;;7.50;2.13;;;;;;;;;;5074358;28;20044;-66
2022/10/15 14:56:45;;;;;;;6.65;1.58;;;;;;;;;;5074609;28;20048;-66
2022/10/15 14:59:15;;;;;;;5.55;1.70;;;;;;;;;;5074544;28;20051;-65